sensor_id;sensor_type;location;lat;lon;timestamp;P1;durP1;ratioP1;P2;durP2;ratioP2
38053;SDS011;23859;50.672;7.164;2023-07-20T00:01:24;5.07;;;2.72;;
38053;SDS011;23859;50.672;7.164;2023-07-20T00:03:50;8.15;;;3.63;;
38053;SDS011;23859;50.672;7.164;2023-07-20T00:06:22;6.75;;;3.60;;
38053;SDS011;23859;50.672;7.164;2023-07-20T00:08:50;12.05;;;3.97;;
38053;SDS011;23859;50.672;7.164;2023-07-20T00:11:17;11.43;;;3.58;;
38053;SDS011;23859;50.672;7.164;2023-07-20T00:13:43;12.95;;;4.30;;
38053;SDS011;23859;50.672;7.164;2023-07-20T00:16:09;11.68;;;4.32;;
38053;SDS011;23859;50.672;7.164;2023-07-20T00:18:35;8.27;;;4.07;;
38053;SDS011;23859;50.672;7.164;2023-07-20T00:21:01;9.80;;;4.18;;
38053;SDS011;23859;50.672;7.164;2023-07-20T00:23:27;8.48;;;4.10;;
38053;SDS011;23859;50.672;7.164;2023-07-20T00:25:54;8.75;;;4.03;;
38053;SDS011;23859;50.672;7.164;2023-07-20T00:28:20;12.82;;;5.03;;
38053;SDS011;23859;50.672;7.164;2023-07-20T00:30:46;10.38;;;4.22;;
38053;SDS011;23859;50.672;7.164;2023-07-20T00:33:12;9.77;;;3.75;;
38053;SDS011;23859;50.672;7.164;2023-07-20T00:35:42;9.50;;;4.07;;
38053;SDS011;23859;50.672;7.164;2023-07-20T00:38:08;11.85;;;4.40;;
38053;SDS011;23859;50.672;7.164;2023-07-20T00:40:40;7.00;;;4.00;;
38053;SDS011;23859;50.672;7.164;2023-07-20T00:43:08;11.30;;;4.30;;
38053;SDS011;23859;50.672;7.164;2023-07-20T00:45:34;15.55;;;5.70;;
38053;SDS011;23859;50.672;7.164;2023-07-20T00:48:03;14.10;;;4.78;;
38053;SDS011;23859;50.672;7.164;2023-07-20T00:50:31;8.93;;;4.57;;
38053;SDS011;23859;50.672;7.164;2023-07-20T00:52:58;7.60;;;4.93;;
38053;SDS011;23859;50.672;7.164;2023-07-20T00:55:24;9.38;;;4.57;;
38053;SDS011;23859;50.672;7.164;2023-07-20T00:57:51;13.15;;;4.35;;
38053;SDS011;23859;50.672;7.164;2023-07-20T01:00:18;10.48;;;4.55;;
38053;SDS011;23859;50.672;7.164;2023-07-20T01:02:44;11.05;;;4.40;;
38053;SDS011;23859;50.672;7.164;2023-07-20T01:05:11;8.95;;;4.35;;
38053;SDS011;23859;50.672;7.164;2023-07-20T01:07:43;8.32;;;4.57;;
38053;SDS011;23859;50.672;7.164;2023-07-20T01:10:23;8.32;;;4.88;;
38053;SDS011;23859;50.672;7.164;2023-07-20T01:13:01;16.93;;;4.87;;
38053;SDS011;23859;50.672;7.164;2023-07-20T01:15:28;12.25;;;5.25;;
38053;SDS011;23859;50.672;7.164;2023-07-20T01:17:54;8.60;;;4.88;;
38053;SDS011;23859;50.672;7.164;2023-07-20T01:20:20;10.13;;;5.07;;
38053;SDS011;23859;50.672;7.164;2023-07-20T01:31:32;9.95;;;4.65;;
38053;SDS011;23859;50.672;7.164;2023-07-20T01:34:01;9.43;;;4.45;;
38053;SDS011;23859;50.672;7.164;2023-07-20T01:36:29;11.15;;;4.72;;
38053;SDS011;23859;50.672;7.164;2023-07-20T01:38:59;8.80;;;5.13;;
38053;SDS011;23859;50.672;7.164;2023-07-20T01:41:25;15.30;;;6.90;;
38053;SDS011;23859;50.672;7.164;2023-07-20T01:43:51;9.30;;;5.32;;
38053;SDS011;23859;50.672;7.164;2023-07-20T01:46:17;11.60;;;5.93;;
38053;SDS011;23859;50.672;7.164;2023-07-20T01:48:43;16.30;;;6.28;;
38053;SDS011;23859;50.672;7.164;2023-07-20T01:51:10;8.13;;;5.25;;
38053;SDS011;23859;50.672;7.164;2023-07-20T01:53:37;8.43;;;4.78;;
38053;SDS011;23859;50.672;7.164;2023-07-20T01:56:03;8.27;;;5.28;;
38053;SDS011;23859;50.672;7.164;2023-07-20T01:58:29;13.13;;;5.63;;
38053;SDS011;23859;50.672;7.164;2023-07-20T02:00:55;11.00;;;4.93;;
38053;SDS011;23859;50.672;7.164;2023-07-20T02:03:21;9.88;;;4.97;;
38053;SDS011;23859;50.672;7.164;2023-07-20T02:05:49;11.48;;;4.80;;
38053;SDS011;23859;50.672;7.164;2023-07-20T02:08:15;8.30;;;4.72;;
38053;SDS011;23859;50.672;7.164;2023-07-20T02:10:41;8.90;;;5.18;;
38053;SDS011;23859;50.672;7.164;2023-07-20T02:13:09;8.15;;;4.70;;
38053;SDS011;23859;50.672;7.164;2023-07-20T02:15:35;7.07;;;4.63;;
38053;SDS011;23859;50.672;7.164;2023-07-20T02:18:01;7.53;;;4.78;;
38053;SDS011;23859;50.672;7.164;2023-07-20T02:20:28;11.65;;;4.63;;
38053;SDS011;23859;50.672;7.164;2023-07-20T02:22:54;11.02;;;5.60;;
38053;SDS011;23859;50.672;7.164;2023-07-20T02:25:21;12.85;;;6.88;;
38053;SDS011;23859;50.672;7.164;2023-07-20T02:27:47;8.23;;;4.82;;
38053;SDS011;23859;50.672;7.164;2023-07-20T02:30:13;9.88;;;4.72;;
38053;SDS011;23859;50.672;7.164;2023-07-20T02:32:39;12.63;;;5.63;;
38053;SDS011;23859;50.672;7.164;2023-07-20T02:35:05;12.63;;;5.72;;
38053;SDS011;23859;50.672;7.164;2023-07-20T02:37:32;9.13;;;5.03;;
38053;SDS011;23859;50.672;7.164;2023-07-20T02:39:58;8.68;;;5.07;;
38053;SDS011;23859;50.672;7.164;2023-07-20T02:42:24;11.05;;;4.93;;
38053;SDS011;23859;50.672;7.164;2023-07-20T02:44:51;9.48;;;5.28;;
38053;SDS011;23859;50.672;7.164;2023-07-20T02:47:17;7.82;;;5.03;;
38053;SDS011;23859;50.672;7.164;2023-07-20T02:49:43;9.15;;;5.72;;
38053;SDS011;23859;50.672;7.164;2023-07-20T02:52:09;11.73;;;5.38;;
38053;SDS011;23859;50.672;7.164;2023-07-20T02:54:35;12.85;;;5.50;;
38053;SDS011;23859;50.672;7.164;2023-07-20T02:57:01;10.07;;;5.60;;
38053;SDS011;23859;50.672;7.164;2023-07-20T02:59:27;10.18;;;5.07;;
38053;SDS011;23859;50.672;7.164;2023-07-20T03:01:54;14.20;;;4.60;;
38053;SDS011;23859;50.672;7.164;2023-07-20T03:04:20;10.10;;;5.68;;
38053;SDS011;23859;50.672;7.164;2023-07-20T03:06:46;10.02;;;5.30;;
38053;SDS011;23859;50.672;7.164;2023-07-20T03:09:12;9.43;;;5.40;;
38053;SDS011;23859;50.672;7.164;2023-07-20T03:11:38;9.70;;;5.60;;
38053;SDS011;23859;50.672;7.164;2023-07-20T03:14:04;9.48;;;4.78;;
38053;SDS011;23859;50.672;7.164;2023-07-20T03:16:30;8.90;;;5.05;;
38053;SDS011;23859;50.672;7.164;2023-07-20T03:18:58;7.43;;;4.80;;
38053;SDS011;23859;50.672;7.164;2023-07-20T03:21:25;12.75;;;5.85;;
38053;SDS011;23859;50.672;7.164;2023-07-20T03:23:51;7.00;;;4.75;;
38053;SDS011;23859;50.672;7.164;2023-07-20T03:26:17;8.25;;;4.20;;
38053;SDS011;23859;50.672;7.164;2023-07-20T03:28:44;8.30;;;4.93;;
38053;SDS011;23859;50.672;7.164;2023-07-20T03:31:10;10.25;;;5.45;;
38053;SDS011;23859;50.672;7.164;2023-07-20T03:33:36;8.07;;;5.20;;
38053;SDS011;23859;50.672;7.164;2023-07-20T03:36:03;9.48;;;4.80;;
38053;SDS011;23859;50.672;7.164;2023-07-20T03:38:29;13.05;;;5.53;;
38053;SDS011;23859;50.672;7.164;2023-07-20T03:40:56;10.05;;;5.20;;
38053;SDS011;23859;50.672;7.164;2023-07-20T03:43:24;8.98;;;5.30;;
38053;SDS011;23859;50.672;7.164;2023-07-20T03:45:51;8.07;;;5.10;;
38053;SDS011;23859;50.672;7.164;2023-07-20T03:48:18;9.32;;;5.63;;
38053;SDS011;23859;50.672;7.164;2023-07-20T03:50:49;10.98;;;5.05;;
38053;SDS011;23859;50.672;7.164;2023-07-20T03:53:16;9.85;;;5.13;;
38053;SDS011;23859;50.672;7.164;2023-07-20T03:55:48;11.23;;;4.60;;
38053;SDS011;23859;50.672;7.164;2023-07-20T03:58:16;12.60;;;5.07;;
38053;SDS011;23859;50.672;7.164;2023-07-20T04:00:46;8.63;;;5.15;;
38053;SDS011;23859;50.672;7.164;2023-07-20T04:03:20;10.85;;;5.57;;
38053;SDS011;23859;50.672;7.164;2023-07-20T04:05:47;9.35;;;5.50;;
38053;SDS011;23859;50.672;7.164;2023-07-20T04:08:13;11.13;;;6.25;;
38053;SDS011;23859;50.672;7.164;2023-07-20T04:10:42;10.43;;;5.60;;
38053;SDS011;23859;50.672;7.164;2023-07-20T04:13:09;9.30;;;4.70;;
38053;SDS011;23859;50.672;7.164;2023-07-20T04:15:35;8.45;;;4.47;;
38053;SDS011;23859;50.672;7.164;2023-07-20T04:18:01;10.85;;;4.63;;
38053;SDS011;23859;50.672;7.164;2023-07-20T04:20:27;6.88;;;4.40;;
38053;SDS011;23859;50.672;7.164;2023-07-20T04:22:53;10.27;;;4.03;;
38053;SDS011;23859;50.672;7.164;2023-07-20T04:25:20;8.27;;;4.63;;
38053;SDS011;23859;50.672;7.164;2023-07-20T04:27:46;8.50;;;5.07;;
38053;SDS011;23859;50.672;7.164;2023-07-20T04:30:12;8.82;;;5.10;;
38053;SDS011;23859;50.672;7.164;2023-07-20T04:32:39;8.52;;;4.20;;
38053;SDS011;23859;50.672;7.164;2023-07-20T04:35:09;7.65;;;4.90;;
38053;SDS011;23859;50.672;7.164;2023-07-20T04:37:35;11.40;;;4.32;;
38053;SDS011;23859;50.672;7.164;2023-07-20T04:40:01;8.52;;;4.10;;
38053;SDS011;23859;50.672;7.164;2023-07-20T04:42:28;9.48;;;4.90;;
38053;SDS011;23859;50.672;7.164;2023-07-20T04:44:54;7.68;;;4.45;;
38053;SDS011;23859;50.672;7.164;2023-07-20T04:47:20;10.90;;;4.63;;
38053;SDS011;23859;50.672;7.164;2023-07-20T04:49:46;7.20;;;4.57;;
38053;SDS011;23859;50.672;7.164;2023-07-20T04:52:12;9.82;;;4.82;;
38053;SDS011;23859;50.672;7.164;2023-07-20T04:54:38;11.70;;;4.93;;
38053;SDS011;23859;50.672;7.164;2023-07-20T04:57:09;8.93;;;4.35;;
38053;SDS011;23859;50.672;7.164;2023-07-20T04:59:36;9.77;;;4.00;;
38053;SDS011;23859;50.672;7.164;2023-07-20T05:02:02;10.77;;;4.28;;
38053;SDS011;23859;50.672;7.164;2023-07-20T05:04:28;7.63;;;4.20;;
38053;SDS011;23859;50.672;7.164;2023-07-20T05:06:54;8.60;;;4.22;;
38053;SDS011;23859;50.672;7.164;2023-07-20T05:09:20;14.15;;;4.88;;
38053;SDS011;23859;50.672;7.164;2023-07-20T05:11:48;10.40;;;4.35;;
38053;SDS011;23859;50.672;7.164;2023-07-20T05:14:14;7.28;;;4.20;;
38053;SDS011;23859;50.672;7.164;2023-07-20T05:16:40;8.30;;;4.60;;
38053;SDS011;23859;50.672;7.164;2023-07-20T05:19:06;8.85;;;4.18;;
38053;SDS011;23859;50.672;7.164;2023-07-20T05:21:32;9.20;;;4.03;;
38053;SDS011;23859;50.672;7.164;2023-07-20T05:23:58;7.00;;;4.07;;
38053;SDS011;23859;50.672;7.164;2023-07-20T05:26:24;8.20;;;4.22;;
38053;SDS011;23859;50.672;7.164;2023-07-20T05:28:50;10.75;;;4.03;;
38053;SDS011;23859;50.672;7.164;2023-07-20T05:31:16;6.75;;;3.38;;
38053;SDS011;23859;50.672;7.164;2023-07-20T05:33:42;8.02;;;3.90;;
38053;SDS011;23859;50.672;7.164;2023-07-20T05:36:08;6.80;;;4.03;;
38053;SDS011;23859;50.672;7.164;2023-07-20T05:38:34;7.57;;;3.75;;
38053;SDS011;23859;50.672;7.164;2023-07-20T05:41:00;13.68;;;4.65;;
38053;SDS011;23859;50.672;7.164;2023-07-20T05:43:27;11.45;;;4.07;;
38053;SDS011;23859;50.672;7.164;2023-07-20T05:45:53;5.25;;;3.85;;
38053;SDS011;23859;50.672;7.164;2023-07-20T05:48:19;11.57;;;4.13;;
38053;SDS011;23859;50.672;7.164;2023-07-20T05:50:45;8.50;;;4.53;;
38053;SDS011;23859;50.672;7.164;2023-07-20T05:53:11;7.57;;;5.10;;
38053;SDS011;23859;50.672;7.164;2023-07-20T05:55:37;7.18;;;4.70;;
38053;SDS011;23859;50.672;7.164;2023-07-20T05:58:05;12.80;;;5.53;;
38053;SDS011;23859;50.672;7.164;2023-07-20T06:00:31;12.40;;;4.97;;
38053;SDS011;23859;50.672;7.164;2023-07-20T06:02:57;14.30;;;5.55;;
38053;SDS011;23859;50.672;7.164;2023-07-20T06:05:23;9.82;;;5.70;;
38053;SDS011;23859;50.672;7.164;2023-07-20T06:07:49;13.90;;;5.20;;
38053;SDS011;23859;50.672;7.164;2023-07-20T06:10:15;10.75;;;5.63;;
38053;SDS011;23859;50.672;7.164;2023-07-20T06:12:41;12.07;;;6.10;;
38053;SDS011;23859;50.672;7.164;2023-07-20T06:15:23;13.38;;;6.50;;
38053;SDS011;23859;50.672;7.164;2023-07-20T06:17:51;12.27;;;6.05;;
38053;SDS011;23859;50.672;7.164;2023-07-20T06:20:18;15.35;;;6.25;;
38053;SDS011;23859;50.672;7.164;2023-07-20T06:22:44;11.52;;;5.93;;
38053;SDS011;23859;50.672;7.164;2023-07-20T06:25:10;12.00;;;5.95;;
38053;SDS011;23859;50.672;7.164;2023-07-20T06:27:36;13.23;;;7.05;;
38053;SDS011;23859;50.672;7.164;2023-07-20T06:30:03;12.63;;;7.00;;
38053;SDS011;23859;50.672;7.164;2023-07-20T06:32:29;15.10;;;8.13;;
38053;SDS011;23859;50.672;7.164;2023-07-20T06:34:55;12.43;;;7.13;;
38053;SDS011;23859;50.672;7.164;2023-07-20T06:37:21;12.93;;;6.68;;
38053;SDS011;23859;50.672;7.164;2023-07-20T06:39:47;12.07;;;7.30;;
38053;SDS011;23859;50.672;7.164;2023-07-20T06:42:13;14.70;;;7.47;;
38053;SDS011;23859;50.672;7.164;2023-07-20T06:44:39;21.90;;;7.45;;
38053;SDS011;23859;50.672;7.164;2023-07-20T06:47:05;11.68;;;7.90;;
38053;SDS011;23859;50.672;7.164;2023-07-20T06:49:32;14.20;;;6.75;;
38053;SDS011;23859;50.672;7.164;2023-07-20T06:51:58;14.52;;;7.38;;
38053;SDS011;23859;50.672;7.164;2023-07-20T06:54:24;19.20;;;6.72;;
38053;SDS011;23859;50.672;7.164;2023-07-20T06:56:50;13.80;;;6.00;;
38053;SDS011;23859;50.672;7.164;2023-07-20T06:59:17;14.07;;;7.05;;
38053;SDS011;23859;50.672;7.164;2023-07-20T07:01:43;13.20;;;6.03;;
38053;SDS011;23859;50.672;7.164;2023-07-20T07:04:09;14.27;;;7.57;;
38053;SDS011;23859;50.672;7.164;2023-07-20T07:06:35;11.15;;;5.93;;
38053;SDS011;23859;50.672;7.164;2023-07-20T07:09:02;12.77;;;5.80;;
38053;SDS011;23859;50.672;7.164;2023-07-20T07:11:28;13.98;;;6.28;;
38053;SDS011;23859;50.672;7.164;2023-07-20T07:13:54;16.23;;;5.72;;
38053;SDS011;23859;50.672;7.164;2023-07-20T07:16:20;7.85;;;4.88;;
38053;SDS011;23859;50.672;7.164;2023-07-20T07:18:46;7.90;;;5.40;;
38053;SDS011;23859;50.672;7.164;2023-07-20T07:21:15;13.43;;;4.97;;
38053;SDS011;23859;50.672;7.164;2023-07-20T07:23:41;11.65;;;4.88;;
38053;SDS011;23859;50.672;7.164;2023-07-20T07:26:08;9.70;;;5.55;;
38053;SDS011;23859;50.672;7.164;2023-07-20T07:28:34;5.90;;;4.28;;
38053;SDS011;23859;50.672;7.164;2023-07-20T07:31:02;12.07;;;4.68;;
38053;SDS011;23859;50.672;7.164;2023-07-20T07:33:30;12.57;;;4.70;;
38053;SDS011;23859;50.672;7.164;2023-07-20T07:35:57;6.35;;;4.47;;
38053;SDS011;23859;50.672;7.164;2023-07-20T07:38:23;11.07;;;4.03;;
38053;SDS011;23859;50.672;7.164;2023-07-20T07:40:49;9.45;;;4.55;;
38053;SDS011;23859;50.672;7.164;2023-07-20T07:43:15;10.40;;;4.75;;
38053;SDS011;23859;50.672;7.164;2023-07-20T07:45:41;10.85;;;5.38;;
38053;SDS011;23859;50.672;7.164;2023-07-20T07:48:07;8.65;;;4.22;;
38053;SDS011;23859;50.672;7.164;2023-07-20T07:50:36;6.57;;;3.70;;
38053;SDS011;23859;50.672;7.164;2023-07-20T07:53:03;7.43;;;3.78;;
38053;SDS011;23859;50.672;7.164;2023-07-20T07:55:29;6.50;;;3.65;;
38053;SDS011;23859;50.672;7.164;2023-07-20T07:57:55;7.68;;;3.95;;
38053;SDS011;23859;50.672;7.164;2023-07-20T08:00:21;7.72;;;4.80;;
38053;SDS011;23859;50.672;7.164;2023-07-20T08:02:47;6.57;;;3.90;;
38053;SDS011;23859;50.672;7.164;2023-07-20T08:05:15;9.73;;;3.65;;
38053;SDS011;23859;50.672;7.164;2023-07-20T08:07:41;8.80;;;4.82;;
38053;SDS011;23859;50.672;7.164;2023-07-20T08:10:08;7.80;;;4.15;;
38053;SDS011;23859;50.672;7.164;2023-07-20T08:12:34;7.40;;;4.05;;
38053;SDS011;23859;50.672;7.164;2023-07-20T08:15:01;7.75;;;3.83;;
38053;SDS011;23859;50.672;7.164;2023-07-20T08:17:27;7.05;;;3.80;;
38053;SDS011;23859;50.672;7.164;2023-07-20T08:19:53;7.97;;;3.88;;
38053;SDS011;23859;50.672;7.164;2023-07-20T08:22:19;9.25;;;3.97;;
38053;SDS011;23859;50.672;7.164;2023-07-20T08:24:45;9.63;;;3.83;;
38053;SDS011;23859;50.672;7.164;2023-07-20T08:27:11;8.88;;;4.20;;
38053;SDS011;23859;50.672;7.164;2023-07-20T08:29:38;6.90;;;3.67;;
38053;SDS011;23859;50.672;7.164;2023-07-20T08:32:04;3.78;;;2.97;;
38053;SDS011;23859;50.672;7.164;2023-07-20T08:34:31;6.35;;;3.78;;
38053;SDS011;23859;50.672;7.164;2023-07-20T08:36:57;8.38;;;3.85;;
38053;SDS011;23859;50.672;7.164;2023-07-20T08:39:24;3.95;;;2.97;;
38053;SDS011;23859;50.672;7.164;2023-07-20T08:41:50;5.13;;;2.95;;
38053;SDS011;23859;50.672;7.164;2023-07-20T08:44:16;5.10;;;2.42;;
38053;SDS011;23859;50.672;7.164;2023-07-20T08:46:43;4.25;;;3.15;;
38053;SDS011;23859;50.672;7.164;2023-07-20T08:49:11;7.90;;;3.08;;
38053;SDS011;23859;50.672;7.164;2023-07-20T08:51:37;5.63;;;2.80;;
38053;SDS011;23859;50.672;7.164;2023-07-20T08:54:05;3.72;;;2.58;;
38053;SDS011;23859;50.672;7.164;2023-07-20T08:56:33;6.90;;;3.63;;
38053;SDS011;23859;50.672;7.164;2023-07-20T08:58:59;6.80;;;2.85;;
38053;SDS011;23859;50.672;7.164;2023-07-20T09:01:27;7.65;;;3.00;;
38053;SDS011;23859;50.672;7.164;2023-07-20T09:03:57;4.80;;;2.17;;
38053;SDS011;23859;50.672;7.164;2023-07-20T09:06:23;4.20;;;3.10;;
38053;SDS011;23859;50.672;7.164;2023-07-20T09:08:49;4.60;;;2.70;;
38053;SDS011;23859;50.672;7.164;2023-07-20T09:11:15;3.97;;;2.38;;
38053;SDS011;23859;50.672;7.164;2023-07-20T09:13:42;3.28;;;2.40;;
38053;SDS011;23859;50.672;7.164;2023-07-20T09:16:08;2.28;;;2.00;;
38053;SDS011;23859;50.672;7.164;2023-07-20T09:18:38;2.65;;;2.10;;
38053;SDS011;23859;50.672;7.164;2023-07-20T09:21:04;5.18;;;2.17;;
38053;SDS011;23859;50.672;7.164;2023-07-20T09:23:32;3.72;;;2.40;;
38053;SDS011;23859;50.672;7.164;2023-07-20T09:25:59;5.50;;;2.30;;
38053;SDS011;23859;50.672;7.164;2023-07-20T09:28:25;5.63;;;2.20;;
38053;SDS011;23859;50.672;7.164;2023-07-20T09:30:53;4.60;;;2.08;;
38053;SDS011;23859;50.672;7.164;2023-07-20T09:33:22;3.25;;;1.85;;
38053;SDS011;23859;50.672;7.164;2023-07-20T09:35:48;3.55;;;1.95;;
38053;SDS011;23859;50.672;7.164;2023-07-20T09:38:14;10.23;;;2.05;;
38053;SDS011;23859;50.672;7.164;2023-07-20T09:40:41;4.57;;;1.83;;
38053;SDS011;23859;50.672;7.164;2023-07-20T09:43:08;4.18;;;1.85;;
38053;SDS011;23859;50.672;7.164;2023-07-20T09:45:35;5.15;;;2.00;;
38053;SDS011;23859;50.672;7.164;2023-07-20T09:48:06;4.82;;;1.60;;
38053;SDS011;23859;50.672;7.164;2023-07-20T09:50:34;5.65;;;1.67;;
38053;SDS011;23859;50.672;7.164;2023-07-20T09:53:07;2.92;;;1.80;;
38053;SDS011;23859;50.672;7.164;2023-07-20T09:55:39;5.85;;;1.88;;
38053;SDS011;23859;50.672;7.164;2023-07-20T09:58:08;6.35;;;1.70;;
38053;SDS011;23859;50.672;7.164;2023-07-20T10:00:37;3.97;;;2.10;;
38053;SDS011;23859;50.672;7.164;2023-07-20T10:03:05;2.58;;;1.70;;
38053;SDS011;23859;50.672;7.164;2023-07-20T10:05:32;1.80;;;1.52;;
38053;SDS011;23859;50.672;7.164;2023-07-20T10:08:02;3.08;;;1.77;;
38053;SDS011;23859;50.672;7.164;2023-07-20T10:10:33;2.83;;;1.85;;
38053;SDS011;23859;50.672;7.164;2023-07-20T10:13:00;3.00;;;1.60;;
38053;SDS011;23859;50.672;7.164;2023-07-20T10:15:36;3.45;;;1.50;;
38053;SDS011;23859;50.672;7.164;2023-07-20T10:20:38;2.50;;;1.45;;
38053;SDS011;23859;50.672;7.164;2023-07-20T10:23:06;2.17;;;1.65;;
38053;SDS011;23859;50.672;7.164;2023-07-20T10:25:33;4.95;;;1.50;;
38053;SDS011;23859;50.672;7.164;2023-07-20T10:28:03;3.33;;;1.52;;
38053;SDS011;23859;50.672;7.164;2023-07-20T10:30:31;2.35;;;2.10;;
38053;SDS011;23859;50.672;7.164;2023-07-20T10:33:02;3.72;;;1.92;;
38053;SDS011;23859;50.672;7.164;2023-07-20T10:35:29;3.85;;;1.60;;
38053;SDS011;23859;50.672;7.164;2023-07-20T10:38:01;3.22;;;1.70;;
38053;SDS011;23859;50.672;7.164;2023-07-20T10:40:29;5.47;;;1.90;;
38053;SDS011;23859;50.672;7.164;2023-07-20T10:48:18;5.72;;;1.98;;
38053;SDS011;23859;50.672;7.164;2023-07-20T10:51:08;1.67;;;1.42;;
38053;SDS011;23859;50.672;7.164;2023-07-20T10:53:45;1.90;;;1.60;;
38053;SDS011;23859;50.672;7.164;2023-07-20T10:56:13;5.53;;;2.30;;
38053;SDS011;23859;50.672;7.164;2023-07-20T10:58:44;4.50;;;1.95;;
38053;SDS011;23859;50.672;7.164;2023-07-20T11:01:13;3.58;;;1.65;;
38053;SDS011;23859;50.672;7.164;2023-07-20T11:03:41;3.25;;;1.65;;
38053;SDS011;23859;50.672;7.164;2023-07-20T11:11:42;3.22;;;1.58;;
38053;SDS011;23859;50.672;7.164;2023-07-20T11:14:21;1.70;;;1.60;;
38053;SDS011;23859;50.672;7.164;2023-07-20T11:16:49;3.25;;;1.67;;
38053;SDS011;23859;50.672;7.164;2023-07-20T11:19:17;2.40;;;2.00;;
38053;SDS011;23859;50.672;7.164;2023-07-20T11:21:46;2.50;;;1.65;;
38053;SDS011;23859;50.672;7.164;2023-07-20T11:24:16;3.70;;;1.75;;
38053;SDS011;23859;50.672;7.164;2023-07-20T11:26:49;2.70;;;1.63;;
38053;SDS011;23859;50.672;7.164;2023-07-20T11:29:18;1.92;;;1.48;;
38053;SDS011;23859;50.672;7.164;2023-07-20T11:31:45;2.60;;;1.50;;
38053;SDS011;23859;50.672;7.164;2023-07-20T11:34:15;2.08;;;1.50;;
38053;SDS011;23859;50.672;7.164;2023-07-20T11:36:43;3.13;;;1.38;;
38053;SDS011;23859;50.672;7.164;2023-07-20T11:39:11;2.22;;;1.50;;
38053;SDS011;23859;50.672;7.164;2023-07-20T11:41:38;2.08;;;1.45;;
38053;SDS011;23859;50.672;7.164;2023-07-20T11:44:09;3.65;;;1.40;;
38053;SDS011;23859;50.672;7.164;2023-07-20T11:46:40;4.30;;;1.67;;
38053;SDS011;23859;50.672;7.164;2023-07-20T11:49:09;2.70;;;1.98;;
38053;SDS011;23859;50.672;7.164;2023-07-20T11:51:36;5.18;;;2.17;;
38053;SDS011;23859;50.672;7.164;2023-07-20T11:54:03;1.63;;;1.25;;
38053;SDS011;23859;50.672;7.164;2023-07-20T11:56:31;5.00;;;1.70;;
38053;SDS011;23859;50.672;7.164;2023-07-20T11:58:57;3.83;;;1.40;;
38053;SDS011;23859;50.672;7.164;2023-07-20T12:01:26;6.57;;;1.67;;
38053;SDS011;23859;50.672;7.164;2023-07-20T12:04:00;4.55;;;1.50;;
38053;SDS011;23859;50.672;7.164;2023-07-20T12:06:28;2.00;;;1.70;;
38053;SDS011;23859;50.672;7.164;2023-07-20T12:08:57;2.38;;;1.65;;
38053;SDS011;23859;50.672;7.164;2023-07-20T12:11:57;2.20;;;1.70;;
38053;SDS011;23859;50.672;7.164;2023-07-20T12:14:16;2.83;;;1.50;;
38053;SDS011;23859;50.672;7.164;2023-07-20T12:16:43;1.65;;;1.40;;
38053;SDS011;23859;50.672;7.164;2023-07-20T12:19:09;2.05;;;1.90;;
38053;SDS011;23859;50.672;7.164;2023-07-20T12:21:39;2.92;;;1.35;;
38053;SDS011;23859;50.672;7.164;2023-07-20T12:24:07;2.40;;;1.38;;
38053;SDS011;23859;50.672;7.164;2023-07-20T12:26:35;2.92;;;1.45;;
38053;SDS011;23859;50.672;7.164;2023-07-20T12:29:01;6.05;;;1.75;;
38053;SDS011;23859;50.672;7.164;2023-07-20T12:31:28;2.70;;;1.55;;
38053;SDS011;23859;50.672;7.164;2023-07-20T12:33:56;3.00;;;1.67;;
38053;SDS011;23859;50.672;7.164;2023-07-20T12:36:23;2.45;;;1.50;;
38053;SDS011;23859;50.672;7.164;2023-07-20T12:38:49;3.45;;;1.52;;
38053;SDS011;23859;50.672;7.164;2023-07-20T12:41:16;5.03;;;1.80;;
38053;SDS011;23859;50.672;7.164;2023-07-20T12:43:42;1.50;;;1.40;;
38053;SDS011;23859;50.672;7.164;2023-07-20T12:46:10;2.15;;;1.67;;
38053;SDS011;23859;50.672;7.164;2023-07-20T12:48:37;6.88;;;1.73;;
38053;SDS011;23859;50.672;7.164;2023-07-20T12:51:05;3.35;;;1.65;;
38053;SDS011;23859;50.672;7.164;2023-07-20T12:53:32;2.47;;;1.55;;
38053;SDS011;23859;50.672;7.164;2023-07-20T12:55:59;2.97;;;1.40;;
38053;SDS011;23859;50.672;7.164;2023-07-20T12:58:25;3.42;;;1.25;;
38053;SDS011;23859;50.672;7.164;2023-07-20T13:00:52;4.82;;;1.60;;
38053;SDS011;23859;50.672;7.164;2023-07-20T13:03:18;3.00;;;1.77;;
38053;SDS011;23859;50.672;7.164;2023-07-20T13:05:44;4.05;;;1.50;;
38053;SDS011;23859;50.672;7.164;2023-07-20T13:08:11;3.65;;;1.40;;
38053;SDS011;23859;50.672;7.164;2023-07-20T13:10:37;2.45;;;1.50;;
38053;SDS011;23859;50.672;7.164;2023-07-20T13:13:04;2.45;;;1.42;;
38053;SDS011;23859;50.672;7.164;2023-07-20T13:15:40;2.72;;;1.30;;
38053;SDS011;23859;50.672;7.164;2023-07-20T13:18:07;6.78;;;1.33;;
38053;SDS011;23859;50.672;7.164;2023-07-20T13:20:33;1.60;;;1.17;;
38053;SDS011;23859;50.672;7.164;2023-07-20T13:22:59;1.45;;;1.27;;
38053;SDS011;23859;50.672;7.164;2023-07-20T13:25:25;1.40;;;1.05;;
38053;SDS011;23859;50.672;7.164;2023-07-20T13:27:52;8.68;;;1.33;;
38053;SDS011;23859;50.672;7.164;2023-07-20T13:30:18;5.65;;;1.10;;
38053;SDS011;23859;50.672;7.164;2023-07-20T13:32:46;4.35;;;1.42;;
38053;SDS011;23859;50.672;7.164;2023-07-20T13:35:12;1.60;;;1.25;;
38053;SDS011;23859;50.672;7.164;2023-07-20T13:37:39;2.15;;;1.23;;
38053;SDS011;23859;50.672;7.164;2023-07-20T13:40:06;3.70;;;1.73;;
38053;SDS011;23859;50.672;7.164;2023-07-20T13:42:37;5.50;;;1.25;;
38053;SDS011;23859;50.672;7.164;2023-07-20T13:45:03;2.50;;;1.38;;
38053;SDS011;23859;50.672;7.164;2023-07-20T13:47:29;2.42;;;1.35;;
38053;SDS011;23859;50.672;7.164;2023-07-20T13:49:55;2.17;;;1.40;;
38053;SDS011;23859;50.672;7.164;2023-07-20T13:52:22;1.42;;;1.20;;
38053;SDS011;23859;50.672;7.164;2023-07-20T13:54:48;2.38;;;1.40;;
38053;SDS011;23859;50.672;7.164;2023-07-20T13:57:14;2.65;;;1.45;;
38053;SDS011;23859;50.672;7.164;2023-07-20T13:59:40;1.55;;;1.45;;
38053;SDS011;23859;50.672;7.164;2023-07-20T14:02:06;1.67;;;1.27;;
38053;SDS011;23859;50.672;7.164;2023-07-20T14:04:32;4.43;;;1.30;;
38053;SDS011;23859;50.672;7.164;2023-07-20T14:06:58;3.72;;;1.50;;
38053;SDS011;23859;50.672;7.164;2023-07-20T14:09:24;3.88;;;1.27;;
38053;SDS011;23859;50.672;7.164;2023-07-20T14:11:50;2.05;;;1.50;;
38053;SDS011;23859;50.672;7.164;2023-07-20T14:14:16;4.10;;;1.38;;
38053;SDS011;23859;50.672;7.164;2023-07-20T14:16:43;1.88;;;1.20;;
38053;SDS011;23859;50.672;7.164;2023-07-20T14:19:09;2.33;;;1.30;;
38053;SDS011;23859;50.672;7.164;2023-07-20T14:21:35;5.22;;;1.35;;
38053;SDS011;23859;50.672;7.164;2023-07-20T14:24:01;1.33;;;1.00;;
38053;SDS011;23859;50.672;7.164;2023-07-20T14:26:27;3.72;;;1.27;;
38053;SDS011;23859;50.672;7.164;2023-07-20T14:28:53;2.95;;;1.25;;
38053;SDS011;23859;50.672;7.164;2023-07-20T14:31:19;1.90;;;1.20;;
38053;SDS011;23859;50.672;7.164;2023-07-20T14:33:45;2.40;;;1.30;;
38053;SDS011;23859;50.672;7.164;2023-07-20T14:36:12;2.25;;;1.33;;
38053;SDS011;23859;50.672;7.164;2023-07-20T14:38:38;3.17;;;1.30;;
38053;SDS011;23859;50.672;7.164;2023-07-20T14:41:05;3.30;;;1.20;;
38053;SDS011;23859;50.672;7.164;2023-07-20T14:43:31;5.28;;;1.23;;
38053;SDS011;23859;50.672;7.164;2023-07-20T14:45:58;4.55;;;1.20;;
38053;SDS011;23859;50.672;7.164;2023-07-20T14:48:24;2.47;;;1.20;;
38053;SDS011;23859;50.672;7.164;2023-07-20T14:50:50;2.17;;;1.20;;
38053;SDS011;23859;50.672;7.164;2023-07-20T14:53:16;5.22;;;1.13;;
38053;SDS011;23859;50.672;7.164;2023-07-20T14:55:42;2.40;;;1.30;;
38053;SDS011;23859;50.672;7.164;2023-07-20T14:58:09;3.90;;;1.25;;
38053;SDS011;23859;50.672;7.164;2023-07-20T15:00:36;7.28;;;1.33;;
38053;SDS011;23859;50.672;7.164;2023-07-20T15:03:02;1.83;;;1.05;;
38053;SDS011;23859;50.672;7.164;2023-07-20T15:05:29;6.38;;;1.20;;